Mallard — WDJ6592 — position and weather

sailwx.info

Track history (hours):
 
Tides and Currents Weather Stations Pressure Air Temp Water Temp Dewpoint Dewpoint Depression Visibility Wind Speed Wind Dir Waves Ship Positions

Mallard

Owner: Kirby Inland Marine LP, Houston, TX. More information available from US FCC via Universal Licensing System and Coast Guard Vessel Documentation Center.

Last reported at 2018-Feb-23 00:23 UTC. Time now 2018-Feb-23 18:25 UTC.
Position N 29°43' W 095°01'.

Length 108 m; draft 2.1 m.

Type: . MMSI: 367799320.

Date/timePositionNaut miles runAvg speedWind from/ knotsBaromVisibWave heightAir tempDewpointWater temp
2018-Feb-23 00:23N 29°43' W 095°01'2 4.5
2018-Feb-22 23:58N 29°42' W 094°60'2 5.0
2018-Feb-22 23:30N 29°40' W 094°58'3 5.5
2018-Feb-22 23:00N 29°37' W 094°57'3 5.5
2018-Feb-22 22:30N 29°35' W 094°56'3 5.7
2018-Feb-22 22:00N 29°32' W 094°54'27 1.2
2018-Feb-21 23:03N 29°36' W 094°23'0 4.0
2018-Feb-21 22:56N 29°36' W 094°22'2 4.0
2018-Feb-21 22:30N 29°37' W 094°21'2 3.2
2018-Feb-21 21:57N 29°38' W 094°19'0 0.1
2018-Feb-21 21:30N 29°38' W 094°19'1 2.1
2018-Feb-21 21:01N 29°38' W 094°18'2 4.0
2018-Feb-21 20:30N 29°39' W 094°16'2 4.1
2018-Feb-21 20:01N 29°40' W 094°14'2 4.3
2018-Feb-21 19:30N 29°41' W 094°11'2 4.0
2018-Feb-21 19:00N 29°42' W 094°09'2 3.9
2018-Feb-21 18:30N 29°43' W 094°07'2 4.2
2018-Feb-21 18:01N 29°44' W 094°05'2 4.5
2018-Feb-21 17:31N 29°46' W 094°03'2 4.2
2018-Feb-21 17:00N 29°47' W 094°02'2 4.7
2018-Feb-21 16:31N 29°49' W 093°60'2 4.6
2018-Feb-21 16:00N 29°50' W 093°57'2 4.6
2018-Feb-21 15:31N 29°52' W 093°56'2 4.9
2018-Feb-21 15:01N 29°54' W 093°54'3 4.9
2018-Feb-21 14:30N 29°56' W 093°53'2 4.6
2018-Feb-21 14:00N 29°58' W 093°51'1 1.7
2018-Feb-21 13:31N 29°58' W 093°51'0 0.0
2018-Feb-21 13:00N 29°58' W 093°51'0 0.0
2018-Feb-21 12:30N 29°58' W 093°51'0 0.2
2018-Feb-21 12:00N 29°58' W 093°51'0 0.2
2018-Feb-21 11:30N 29°58' W 093°51'0 0.0
2018-Feb-21 11:00N 29°58' W 093°51'0 0.0
2018-Feb-21 10:31N 29°58' W 093°51'0 0.0
2018-Feb-21 10:00N 29°58' W 093°51'0 0.5
2018-Feb-21 09:31N 29°58' W 093°51'0 0.4
2018-Feb-21 09:01N 29°58' W 093°51'2 4.6
2018-Feb-21 08:31N 29°59' W 093°48'2 4.7
2018-Feb-21 08:00N 30°00' W 093°46'2 3.1
2018-Feb-21 07:30N 30°01' W 093°45'2 4.6
2018-Feb-21 07:01N 30°03' W 093°43'2 4.2
2018-Feb-21 06:30N 30°04' W 093°41'2 4.3
2018-Feb-21 06:00N 30°04' W 093°38'2 4.3
2018-Feb-21 05:30N 30°04' W 093°36'2 4.3
2018-Feb-21 04:59N 30°04' W 093°33'2 4.4
2018-Feb-21 04:31N 30°04' W 093°31'2 4.5
2018-Feb-21 04:00N 30°04' W 093°28'2 4.5
2018-Feb-21 03:30N 30°04' W 093°26'2 4.4
2018-Feb-21 03:01N 30°04' W 093°23'2 4.1
2018-Feb-21 02:31N 30°04' W 093°21'2 3.9
2018-Feb-21 01:59N 30°06' W 093°19'1 2.5
2018-Feb-21 01:31N 30°06' W 093°18'2 3.1
2018-Feb-21 01:01N 30°05' W 093°17'0 1.0
2018-Feb-21 00:30N 30°04' W 093°16'0 0.0
2018-Feb-21 00:01N 30°04' W 093°16'0 0.0
2018-Feb-20 23:30N 30°04' W 093°16'1 2.1
2018-Feb-20 23:01N 30°03' W 093°16'2 3.8
2018-Feb-20 22:30N 30°02' W 093°14'2 4.1
2018-Feb-20 22:00N 29°60' W 093°13'2 4.3
2018-Feb-20 21:30N 29°58' W 093°12'2 4.3
2018-Feb-20 21:00N 29°57' W 093°10'2 3.9
2018-Feb-20 20:30N 29°56' W 093°08'40 3.2
2018-Feb-20 07:46N 29°51' W 092°22'1 3.6
2018-Feb-20 07:30N 29°51' W 092°21'2 3.7
2018-Feb-20 07:01N 29°50' W 092°19'2 3.6
2018-Feb-20 06:30N 29°49' W 092°17'2 3.9
2018-Feb-20 06:00N 29°48' W 092°15'2 3.1
2018-Feb-20 05:31N 29°48' W 092°14'1 2.4
2018-Feb-20 05:00N 29°47' W 092°12'2 3.5
2018-Feb-20 04:30N 29°47' W 092°10'2 4.3
2018-Feb-20 04:00N 29°47' W 092°08'2 3.9
2018-Feb-20 03:30N 29°48' W 092°06'2 3.8
2018-Feb-20 03:01N 29°48' W 092°04'2 4.2
2018-Feb-20 02:31N 29°49' W 092°02'2 4.5
2018-Feb-20 02:00N 29°50' W 091°59'58 3.9
2018-Feb-19 11:10N 29°34' W 090°55'1 4.3
2018-Feb-19 11:00N 29°33' W 090°55'3 4.1
2018-Feb-19 10:13N 29°32' W 090°51'1 4.3
2018-Feb-19 10:00N 29°32' W 090°50'2 3.7
2018-Feb-19 09:30N 29°32' W 090°48'2 3.5
2018-Feb-19 09:00N 29°32' W 090°46'2 3.5
2018-Feb-19 08:30N 29°34' W 090°45'2 3.5
2018-Feb-19 08:00N 29°34' W 090°43'2 3.4
2018-Feb-19 07:30N 29°36' W 090°43'1 2.6
2018-Feb-19 07:01N 29°36' W 090°41'2 3.7
2018-Feb-19 06:30N 29°36' W 090°39'2 3.8
2018-Feb-19 06:00N 29°35' W 090°37'2 3.6
2018-Feb-19 05:30N 29°35' W 090°35'2 3.5
2018-Feb-19 05:00N 29°34' W 090°34'2 3.8
2018-Feb-19 04:30N 29°34' W 090°31'2 3.9
2018-Feb-19 03:57N 29°34' W 090°29'  
Track history (hours):
 
Tides and Currents Weather Stations Pressure Air Temp Water Temp Dewpoint Dewpoint Depression Visibility Wind Speed Wind Dir Waves Ship Positions

Mallard

Owner: Kirby Inland Marine LP, Houston, TX. More information available from US FCC via Universal Licensing System and Coast Guard Vessel Documentation Center.

Last reported at 2018-Feb-23 00:23 UTC. Time now 2018-Feb-23 18:25 UTC.
Position N 29°43' W 095°01'.

Length 108 m; draft 2.1 m.

Type: . MMSI: 367799320.

Date/timePositionNaut miles runAvg speedWind from/ knotsBaromVisibWave heightAir tempDewpointWater temp
2018-Feb-23 00:23N 29°43' W 095°01'2 4.5
2018-Feb-22 23:58N 29°42' W 094°60'2 5.0
2018-Feb-22 23:30N 29°40' W 094°58'3 5.5
2018-Feb-22 23:00N 29°37' W 094°57'3 5.5
2018-Feb-22 22:30N 29°35' W 094°56'3 5.7
2018-Feb-22 22:00N 29°32' W 094°54'27 1.2
2018-Feb-21 23:03N 29°36' W 094°23'0 4.0
2018-Feb-21 22:56N 29°36' W 094°22'2 4.0
2018-Feb-21 22:30N 29°37' W 094°21'2 3.2
2018-Feb-21 21:57N 29°38' W 094°19'0 0.1
2018-Feb-21 21:30N 29°38' W 094°19'1 2.1
2018-Feb-21 21:01N 29°38' W 094°18'2 4.0
2018-Feb-21 20:30N 29°39' W 094°16'2 4.1
2018-Feb-21 20:01N 29°40' W 094°14'2 4.3
2018-Feb-21 19:30N 29°41' W 094°11'2 4.0
2018-Feb-21 19:00N 29°42' W 094°09'2 3.9
2018-Feb-21 18:30N 29°43' W 094°07'2 4.2
2018-Feb-21 18:01N 29°44' W 094°05'2 4.5
2018-Feb-21 17:31N 29°46' W 094°03'2 4.2
2018-Feb-21 17:00N 29°47' W 094°02'2 4.7
2018-Feb-21 16:31N 29°49' W 093°60'2 4.6
2018-Feb-21 16:00N 29°50' W 093°57'2 4.6
2018-Feb-21 15:31N 29°52' W 093°56'2 4.9
2018-Feb-21 15:01N 29°54' W 093°54'3 4.9
2018-Feb-21 14:30N 29°56' W 093°53'2 4.6
2018-Feb-21 14:00N 29°58' W 093°51'1 1.7
2018-Feb-21 13:31N 29°58' W 093°51'0 0.0
2018-Feb-21 13:00N 29°58' W 093°51'0 0.0
2018-Feb-21 12:30N 29°58' W 093°51'0 0.2
2018-Feb-21 12:00N 29°58' W 093°51'0 0.2
2018-Feb-21 11:30N 29°58' W 093°51'0 0.0
2018-Feb-21 11:00N 29°58' W 093°51'0 0.0
2018-Feb-21 10:31N 29°58' W 093°51'0 0.0
2018-Feb-21 10:00N 29°58' W 093°51'0 0.5
2018-Feb-21 09:31N 29°58' W 093°51'0 0.4
2018-Feb-21 09:01N 29°58' W 093°51'2 4.6
2018-Feb-21 08:31N 29°59' W 093°48'2 4.7
2018-Feb-21 08:00N 30°00' W 093°46'2 3.1
2018-Feb-21 07:30N 30°01' W 093°45'2 4.6
2018-Feb-21 07:01N 30°03' W 093°43'2 4.2
2018-Feb-21 06:30N 30°04' W 093°41'2 4.3
2018-Feb-21 06:00N 30°04' W 093°38'2 4.3
2018-Feb-21 05:30N 30°04' W 093°36'2 4.3
2018-Feb-21 04:59N 30°04' W 093°33'2 4.4
2018-Feb-21 04:31N 30°04' W 093°31'2 4.5
2018-Feb-21 04:00N 30°04' W 093°28'2 4.5
2018-Feb-21 03:30N 30°04' W 093°26'2 4.4
2018-Feb-21 03:01N 30°04' W 093°23'2 4.1
2018-Feb-21 02:31N 30°04' W 093°21'2 3.9
2018-Feb-21 01:59N 30°06' W 093°19'1 2.5
2018-Feb-21 01:31N 30°06' W 093°18'2 3.1
2018-Feb-21 01:01N 30°05' W 093°17'0 1.0
2018-Feb-21 00:30N 30°04' W 093°16'0 0.0
2018-Feb-21 00:01N 30°04' W 093°16'0 0.0
2018-Feb-20 23:30N 30°04' W 093°16'1 2.1
2018-Feb-20 23:01N 30°03' W 093°16'2 3.8
2018-Feb-20 22:30N 30°02' W 093°14'2 4.1
2018-Feb-20 22:00N 29°60' W 093°13'2 4.3
2018-Feb-20 21:30N 29°58' W 093°12'2 4.3
2018-Feb-20 21:00N 29°57' W 093°10'2 3.9
2018-Feb-20 20:30N 29°56' W 093°08'40 3.2
2018-Feb-20 07:46N 29°51' W 092°22'1 3.6
2018-Feb-20 07:30N 29°51' W 092°21'2 3.7
2018-Feb-20 07:01N 29°50' W 092°19'2 3.6
2018-Feb-20 06:30N 29°49' W 092°17'2 3.9
2018-Feb-20 06:00N 29°48' W 092°15'2 3.1
2018-Feb-20 05:31N 29°48' W 092°14'1 2.4
2018-Feb-20 05:00N 29°47' W 092°12'2 3.5
2018-Feb-20 04:30N 29°47' W 092°10'2 4.3
2018-Feb-20 04:00N 29°47' W 092°08'2 3.9
2018-Feb-20 03:30N 29°48' W 092°06'2 3.8
2018-Feb-20 03:01N 29°48' W 092°04'2 4.2
2018-Feb-20 02:31N 29°49' W 092°02'2 4.5
2018-Feb-20 02:00N 29°50' W 091°59'58 3.9
2018-Feb-19 11:10N 29°34' W 090°55'1 4.3
2018-Feb-19 11:00N 29°33' W 090°55'3 4.1
2018-Feb-19 10:13N 29°32' W 090°51'1 4.3
2018-Feb-19 10:00N 29°32' W 090°50'2 3.7
2018-Feb-19 09:30N 29°32' W 090°48'2 3.5
2018-Feb-19 09:00N 29°32' W 090°46'2 3.5
2018-Feb-19 08:30N 29°34' W 090°45'2 3.5
2018-Feb-19 08:00N 29°34' W 090°43'2 3.4
2018-Feb-19 07:30N 29°36' W 090°43'1 2.6
2018-Feb-19 07:01N 29°36' W 090°41'2 3.7
2018-Feb-19 06:30N 29°36' W 090°39'2 3.8
2018-Feb-19 06:00N 29°35' W 090°37'2 3.6
2018-Feb-19 05:30N 29°35' W 090°35'2 3.5
2018-Feb-19 05:00N 29°34' W 090°34'2 3.8
2018-Feb-19 04:30N 29°34' W 090°31'2 3.9
2018-Feb-19 03:57N 29°34' W 090°29'  

Dump ship's entire track history